Time;durP1;ratioP1;P1;durP2;ratioP2;P2;SDS_P1;SDS_P2;PMS_P1;PMS_P2;Temp;Humidity;BMP_temperature;BMP_pressure;BME280_temperature;BME280_humidity;BME280_pressure;Samples;Min_cycle;Max_cycle;Signal;HPM_P1;HPM_P2
2022/12/13 00:01:44;;;;;;;;;;;;;;;;;;5019588;28;19935;-78
2022/12/13 00:04:09;;;;;;;;;;;;;;;;;;4999964;28;19982;-78
2022/12/13 00:06:35;;;;;;;;;;;;;;;;;;5000993;28;19921;-76
2022/12/13 00:09:01;;;;;;;;;;;;;;;;;;5005762;28;19914;-76
2022/12/13 00:11:26;;;;;;;;;;;;;;;;;;5001233;28;19981;-77
2022/12/13 00:13:52;;;;;;;;;;;;;;;;;;4986357;28;19982;-78
2022/12/13 00:16:18;;;;;;;;;;;;;;;;;;5002161;28;19978;-77
2022/12/13 00:18:44;;;;;;;;;;;;;;;;;;4986269;28;20030;-78
2022/12/13 00:21:09;;;;;;;;;;;;;;;;;;4985830;28;19914;-78
2022/12/13 00:23:35;;;;;;;;;;;;;;;;;;4989589;28;20021;-78
2022/12/13 00:26:01;;;;;;;;;;;;;;;;;;4988582;28;19914;-77
2022/12/13 00:28:26;;;;;;;;;;;;;;;;;;4988947;28;19935;-78
2022/12/13 00:30:52;;;;;;;;;;;;;;;;;;5020297;28;19989;-78
2022/12/13 00:33:17;;;;;;;;;;;;;;;;;;5002490;28;19921;-77
2022/12/13 00:35:44;;;;;;;;;;;;;;;;;;4988203;28;19920;-78
2022/12/13 00:38:10;;;;;;;;;;;;;;;;;;5017968;28;19921;-77
2022/12/13 00:40:35;;;;;;;;;;;;;;;;;;4984933;28;19913;-77
2022/12/13 00:43:01;;;;;;;;;;;;;;;;;;5004838;28;19914;-78
2022/12/13 00:45:27;;;;;;;;;;;;;;;;;;4980746;28;19914;-77
2022/12/13 00:47:53;;;;;;;;;;;;;;;;;;4981360;28;19914;-77
2022/12/13 00:50:18;;;;;;;;;;;;;;;;;;4983108;28;19918;-77
2022/12/13 00:52:44;;;;;;;;;;;;;;;;;;4998165;28;19925;-77
2022/12/13 00:55:09;;;;;;;;;;;;;;;;;;4966717;28;19948;-77
2022/12/13 00:57:35;;;;;;;;;;;;;;;;;;4984347;28;19970;-77
2022/12/13 01:00:04;;;;;;;;;;;;;;;;;;5000512;28;19914;-78
2022/12/13 01:02:30;;;;;;;;;;;;;;;;;;4997380;28;19921;-78
2022/12/13 01:04:56;;;;;;;;;;;;;;;;;;4990864;28;19918;-77
2022/12/13 01:07:21;;;;;;;;;;;;;;;;;;4986024;28;19984;-77
2022/12/13 01:09:47;;;;;;;;;;;;;;;;;;5003550;28;19917;-77
2022/12/13 01:12:12;;;;;;;;;;;;;;;;;;4987032;28;19914;-77
2022/12/13 01:14:38;;;;;;;;;;;;;;;;;;5002851;28;19961;-78
2022/12/13 01:17:03;;;;;;;;;;;;;;;;;;4982550;28;19989;-78
2022/12/13 01:19:29;;;;;;;;;;;;;;;;;;5003960;28;19914;-77
2022/12/13 01:21:54;;;;;;;;;;;;;;;;;;4987445;28;19941;-77
2022/12/13 01:24:23;;;;;;;;;;;;;;;;;;5002050;28;19914;-78
2022/12/13 01:26:49;;;;;;;;;;;;;;;;;;5002244;28;19921;-78
2022/12/13 01:29:14;;;;;;;;;;;;;;;;;;4999636;28;19917;-77
2022/12/13 01:31:40;;;;;;;;;;;;;;;;;;5003075;28;19918;-76
2022/12/13 01:34:09;;;;;;;;;;;;;;;;;;5010262;28;19913;-75
2022/12/13 01:36:34;;;;;;;;;;;;;;;;;;5006529;28;19917;-78
2022/12/13 01:39:00;;;;;;;;;;;;;;;;;;4989558;28;19913;-78
2022/12/13 01:41:25;;;;;;;;;;;;;;;;;;5037488;28;19921;-77
2022/12/13 01:43:51;;;;;;;;;;;;;;;;;;5020637;28;19909;-78
2022/12/13 01:46:17;;;;;;;;;;;;;;;;;;5037207;28;19921;-77
2022/12/13 01:48:42;;;;;;;;;;;;;;;;;;5002695;28;19913;-77
2022/12/13 01:51:08;;;;;;;;;;;;;;;;;;4985700;28;19917;-78
2022/12/13 01:53:34;;;;;;;;;;;;;;;;;;5018416;28;19961;-76
2022/12/13 01:56:00;;;;;;;;;;;;;;;;;;5000783;28;19914;-76
2022/12/13 01:58:26;;;;;;;;;;;;;;;;;;4984541;28;19913;-76
2022/12/13 02:00:51;;;;;;;;;;;;;;;;;;5000234;28;19920;-78
2022/12/13 02:03:17;;;;;;;;;;;;;;;;;;5000406;28;19914;-78
2022/12/13 02:05:42;;;;;;;;;;;;;;;;;;5037984;28;19920;-78
2022/12/13 02:08:08;;;;;;;;;;;;;;;;;;4985775;28;19914;-77
2022/12/13 02:10:34;;;;;;;;;;;;;;;;;;4980172;28;20348;-78
2022/12/13 02:12:59;;;;;;;;;;;;;;;;;;4996254;28;19941;-77
2022/12/13 02:15:25;;;;;;;;;;;;;;;;;;4997829;28;19918;-76
2022/12/13 02:17:51;;;;;;;;;;;;;;;;;;4995140;28;19921;-78
2022/12/13 02:20:17;;;;;;;;;;;;;;;;;;4996078;28;19921;-78
2022/12/13 02:22:42;;;;;;;;;;;;;;;;;;4996912;28;19918;-78
2022/12/13 02:25:08;;;;;;;;;;;;;;;;;;4997181;28;19913;-78
2022/12/13 02:27:33;;;;;;;;;;;;;;;;;;4991811;28;19913;-78
2022/12/13 02:29:59;;;;;;;;;;;;;;;;;;5013067;28;19918;-77
2022/12/13 02:32:24;;;;;;;;;;;;;;;;;;5031846;23;19953;-80
2022/12/13 02:34:50;;;;;;;;;;;;;;;;;;5037202;28;19912;-81
2022/12/13 02:37:15;;;;;;;;;;;;;;;;;;5037933;28;19963;-80
2022/12/13 02:39:40;;;;;;;;;;;;;;;;;;5006642;28;19917;-82
2022/12/13 02:42:06;;;;;;;;;;;;;;;;;;5038833;28;19921;-81
2022/12/13 02:44:31;;;;;;;;;;;;;;;;;;5022422;28;19913;-81
2022/12/13 02:46:56;;;;;;;;;;;;;;;;;;5020517;28;19928;-81
2022/12/13 02:49:22;;;;;;;;;;;;;;;;;;5036937;28;19913;-79
2022/12/13 02:51:47;;;;;;;;;;;;;;;;;;5040233;28;20419;-82
2022/12/13 02:54:12;;;;;;;;;;;;;;;;;;5040836;28;19936;-82
2022/12/13 02:56:38;;;;;;;;;;;;;;;;;;5023418;28;19913;-82
2022/12/13 02:59:03;;;;;;;;;;;;;;;;;;5041612;28;19923;-81
2022/12/13 03:01:29;;;;;;;;;;;;;;;;;;5040601;28;20288;-81
2022/12/13 03:03:54;;;;;;;;;;;;;;;;;;5021635;28;19913;-82
2022/12/13 03:06:28;;;;;;;;;;;;;;;;;;5019724;28;20007;-81
2022/12/13 03:08:54;;;;;;;;;;;;;;;;;;5034959;28;19980;-81
2022/12/13 03:11:19;;;;;;;;;;;;;;;;;;5018172;28;20373;-81
2022/12/13 03:13:45;;;;;;;;;;;;;;;;;;5021678;28;19944;-82
2022/12/13 03:16:10;;;;;;;;;;;;;;;;;;5019763;28;19920;-81
2022/12/13 03:18:35;;;;;;;;;;;;;;;;;;5028603;28;19913;-81
2022/12/13 03:21:01;;;;;;;;;;;;;;;;;;5041051;28;19921;-82
2022/12/13 03:23:26;;;;;;;;;;;;;;;;;;5042241;28;19913;-82
2022/12/13 03:25:52;;;;;;;;;;;;;;;;;;5042316;28;20032;-81
2022/12/13 03:28:17;;;;;;;;;;;;;;;;;;5043187;28;19913;-80
2022/12/13 03:30:42;;;;;;;;;;;;;;;;;;5040501;28;19963;-80
2022/12/13 03:33:08;;;;;;;;;;;;;;;;;;5040553;28;19924;-81
2022/12/13 03:35:33;;;;;;;;;;;;;;;;;;5036228;28;19924;-81
2022/12/13 03:38:00;;;;;;;;;;;;;;;;;;5040421;28;20488;-81
2022/12/13 03:40:26;;;;;;;;;;;;;;;;;;5041149;28;20019;-81
2022/12/13 03:42:51;;;;;;;;;;;;;;;;;;5041832;28;19964;-82
2022/12/13 03:45:17;;;;;;;;;;;;;;;;;;5041901;28;20420;-82
2022/12/13 03:47:43;;;;;;;;;;;;;;;;;;5043301;28;19980;-80
2022/12/13 03:50:08;;;;;;;;;;;;;;;;;;5041328;28;19955;-82
2022/12/13 03:52:33;;;;;;;;;;;;;;;;;;5042228;28;20385;-82
2022/12/13 03:54:59;;;;;;;;;;;;;;;;;;5041824;28;19959;-81
2022/12/13 03:57:24;;;;;;;;;;;;;;;;;;5040122;28;19921;-81
2022/12/13 03:59:49;;;;;;;;;;;;;;;;;;5040134;28;19921;-81
2022/12/13 04:02:15;;;;;;;;;;;;;;;;;;5037780;28;20003;-81
2022/12/13 04:04:40;;;;;;;;;;;;;;;;;;5036680;28;19921;-80
2022/12/13 04:07:06;;;;;;;;;;;;;;;;;;5037515;28;19914;-80
2022/12/13 04:09:31;;;;;;;;;;;;;;;;;;5036757;28;19964;-81
2022/12/13 04:14:40;;;;;;;;;;;;;;;;;;5024852;28;19913;-82
2022/12/13 04:17:06;;;;;;;;;;;;;;;;;;5025058;28;19924;-83
2022/12/13 04:19:31;;;;;;;;;;;;;;;;;;5031604;28;19953;-82
2022/12/13 04:21:57;;;;;;;;;;;;;;;;;;5030002;28;19970;-83
2022/12/13 04:24:22;;;;;;;;;;;;;;;;;;5029244;28;19976;-82
2022/12/13 04:26:47;;;;;;;;;;;;;;;;;;5026014;28;19948;-81
2022/12/13 04:29:13;;;;;;;;;;;;;;;;;;5017125;28;19999;-81
2022/12/13 04:31:39;;;;;;;;;;;;;;;;;;5023532;28;19913;-81
2022/12/13 04:34:04;;;;;;;;;;;;;;;;;;5023585;28;19924;-81
2022/12/13 04:36:29;;;;;;;;;;;;;;;;;;5022198;28;19913;-81
2022/12/13 04:38:55;;;;;;;;;;;;;;;;;;5036833;28;19913;-82
2022/12/13 04:41:20;;;;;;;;;;;;;;;;;;5021438;28;20036;-81
2022/12/13 04:43:45;;;;;;;;;;;;;;;;;;5020967;28;19909;-82
2022/12/13 04:46:11;;;;;;;;;;;;;;;;;;5024996;28;19948;-82
2022/12/13 04:48:36;;;;;;;;;;;;;;;;;;5039512;28;19913;-82
2022/12/13 04:51:02;;;;;;;;;;;;;;;;;;5042537;28;19923;-81
2022/12/13 04:53:27;;;;;;;;;;;;;;;;;;5041694;28;19913;-81
2022/12/13 04:55:52;;;;;;;;;;;;;;;;;;5047167;28;19913;-82
2022/12/13 04:58:18;;;;;;;;;;;;;;;;;;5047467;28;19913;-81
2022/12/13 05:00:43;;;;;;;;;;;;;;;;;;5044813;28;19917;-81
2022/12/13 05:03:09;;;;;;;;;;;;;;;;;;5027521;28;20269;-81
2022/12/13 05:05:34;;;;;;;;;;;;;;;;;;5033055;28;19917;-81
2022/12/13 05:07:59;;;;;;;;;;;;;;;;;;5024585;28;19914;-82
2022/12/13 05:10:25;;;;;;;;;;;;;;;;;;5027187;28;19917;-81
2022/12/13 05:12:50;;;;;;;;;;;;;;;;;;5011428;28;19917;-81
2022/12/13 05:15:15;;;;;;;;;;;;;;;;;;5030043;28;19959;-81
2022/12/13 05:17:41;;;;;;;;;;;;;;;;;;5030976;28;19917;-82
2022/12/13 05:20:06;;;;;;;;;;;;;;;;;;5029089;28;19920;-80
2022/12/13 05:22:31;;;;;;;;;;;;;;;;;;5029270;28;19925;-82
2022/12/13 05:24:57;;;;;;;;;;;;;;;;;;5028813;28;19913;-82
2022/12/13 05:27:22;;;;;;;;;;;;;;;;;;5028443;28;19914;-82
2022/12/13 05:29:48;;;;;;;;;;;;;;;;;;5028491;28;19917;-83
2022/12/13 05:32:14;;;;;;;;;;;;;;;;;;5024346;28;20020;-82
2022/12/13 05:34:39;;;;;;;;;;;;;;;;;;5024981;28;19957;-82
2022/12/13 05:37:04;;;;;;;;;;;;;;;;;;5008080;28;19920;-82
2022/12/13 05:39:30;;;;;;;;;;;;;;;;;;5023966;28;19914;-82
2022/12/13 05:41:55;;;;;;;;;;;;;;;;;;5052598;28;19920;-81
2022/12/13 05:44:21;;;;;;;;;;;;;;;;;;5063447;28;19960;-82
2022/12/13 05:46:46;;;;;;;;;;;;;;;;;;5065525;28;19912;-82
2022/12/13 05:49:12;;;;;;;;;;;;;;;;;;5066233;28;19920;-82
2022/12/13 05:51:37;;;;;;;;;;;;;;;;;;5066941;28;19948;-81
2022/12/13 05:54:03;;;;;;;;;;;;;;;;;;5048086;28;19919;-81
2022/12/13 05:56:28;;;;;;;;;;;;;;;;;;5063977;28;19913;-81
2022/12/13 05:58:53;;;;;;;;;;;;;;;;;;5033058;28;20424;-81
2022/12/13 06:01:19;;;;;;;;;;;;;;;;;;5022302;28;19909;-80
2022/12/13 06:03:45;;;;;;;;;;;;;;;;;;5040884;28;19914;-82
2022/12/13 06:06:10;;;;;;;;;;;;;;;;;;5009591;28;19913;-82
2022/12/13 06:08:35;;;;;;;;;;;;;;;;;;5026220;28;20012;-82
2022/12/13 06:11:01;;;;;;;;;;;;;;;;;;5043657;28;19993;-82
2022/12/13 06:13:26;;;;;;;;;;;;;;;;;;5028935;28;19913;-83
2022/12/13 06:15:52;;;;;;;;;;;;;;;;;;5042650;28;19962;-82
2022/12/13 06:18:17;;;;;;;;;;;;;;;;;;5043910;28;20009;-81
2022/12/13 06:20:43;;;;;;;;;;;;;;;;;;5044309;28;20016;-82
2022/12/13 06:23:08;;;;;;;;;;;;;;;;;;5041950;28;20398;-81
2022/12/13 06:25:33;;;;;;;;;;;;;;;;;;5043415;28;19947;-81
2022/12/13 06:27:59;;;;;;;;;;;;;;;;;;5041942;28;20218;-81
2022/12/13 06:30:24;;;;;;;;;;;;;;;;;;5026026;28;19917;-82
2022/12/13 06:32:50;;;;;;;;;;;;;;;;;;5020334;28;19924;-83
2022/12/13 06:35:15;;;;;;;;;;;;;;;;;;5021727;28;19913;-82
2022/12/13 06:37:41;;;;;;;;;;;;;;;;;;5020328;28;20001;-80
2022/12/13 06:40:06;;;;;;;;;;;;;;;;;;5003337;28;19913;-81
2022/12/13 06:42:31;;;;;;;;;;;;;;;;;;5004739;28;19940;-82
2022/12/13 06:44:57;;;;;;;;;;;;;;;;;;5024991;28;19952;-83
2022/12/13 06:47:23;;;;;;;;;;;;;;;;;;5020991;28;19913;-82
2022/12/13 06:49:51;;;;;;;;;;;;;;;;;;5008332;28;19924;-83
2022/12/13 06:52:16;;;;;;;;;;;;;;;;;;5046980;28;19913;-81
2022/12/13 06:54:43;;;;;;;;;;;;;;;;;;5046213;28;19913;-82
2022/12/13 06:57:09;;;;;;;;;;;;;;;;;;5026306;28;19913;-82
2022/12/13 06:59:37;;;;;;;;;;;;;;;;;;5046421;28;19913;-82
2022/12/13 07:02:03;;;;;;;;;;;;;;;;;;5031286;28;19913;-82
2022/12/13 07:04:35;;;;;;;;;;;;;;;;;;5016962;28;19988;-81
2022/12/13 07:07:01;;;;;;;;;;;;;;;;;;5033558;28;19913;-83
2022/12/13 07:09:33;;;;;;;;;;;;;;;;;;5036324;28;19947;-83
2022/12/13 07:11:58;;;;;;;;;;;;;;;;;;5030837;28;19913;-83
2022/12/13 07:14:24;;;;;;;;;;;;;;;;;;5030058;28;19917;-82
2022/12/13 07:16:50;;;;;;;;;;;;;;;;;;5029693;28;19936;-83
2022/12/13 07:19:15;;;;;;;;;;;;;;;;;;5045624;28;19979;-81
2022/12/13 07:21:41;;;;;;;;;;;;;;;;;;5047497;28;19985;-81
2022/12/13 07:24:07;;;;;;;;;;;;;;;;;;5033240;28;19945;-82
2022/12/13 07:26:33;;;;;;;;;;;;;;;;;;5017144;28;19913;-82
2022/12/13 07:28:58;;;;;;;;;;;;;;;;;;5033779;28;19923;-83
2022/12/13 07:31:24;;;;;;;;;;;;;;;;;;5030320;28;19996;-81
2022/12/13 07:33:50;;;;;;;;;;;;;;;;;;5018092;28;19923;-83
2022/12/13 07:36:16;;;;;;;;;;;;;;;;;;5017684;28;20531;-80
2022/12/13 07:38:42;;;;;;;;;;;;;;;;;;5051574;28;19913;-82
2022/12/13 07:41:08;;;;;;;;;;;;;;;;;;5040108;28;19973;-82
2022/12/13 07:43:33;;;;;;;;;;;;;;;;;;5000116;28;19925;-82
2022/12/13 07:46:02;;;;;;;;;;;;;;;;;;5018534;28;19941;-81
2022/12/13 07:48:30;;;;;;;;;;;;;;;;;;5018557;28;19936;-83
2022/12/13 07:50:56;;;;;;;;;;;;;;;;;;4998042;28;19901;-82
2022/12/13 07:53:22;;;;;;;;;;;;;;;;;;5065338;28;20007;-84
2022/12/13 07:55:48;;;;;;;;;;;;;;;;;;5068930;28;19913;-83
2022/12/13 07:58:18;;;;;;;;;;;;;;;;;;5072269;28;19913;-83
2022/12/13 08:00:44;;;;;;;;;;;;;;;;;;5073847;28;19912;-82
2022/12/13 08:03:12;;;;;;;;;;;;;;;;;;5074688;28;19927;-82
2022/12/13 08:05:41;;;;;;;;;;;;;;;;;;5057868;28;19913;-83
2022/12/13 08:08:06;;;;;;;;;;;;;;;;;;5055716;28;19913;-83
2022/12/13 08:10:32;;;;;;;;;;;;;;;;;;5062005;28;19921;-82
2022/12/13 08:13:01;;;;;;;;;;;;;;;;;;5036495;28;19980;-82
2022/12/13 08:15:30;;;;;;;;;;;;;;;;;;5034394;28;19920;-83
2022/12/13 08:17:55;;;;;;;;;;;;;;;;;;5033553;28;19913;-82
2022/12/13 08:20:23;;;;;;;;;;;;;;;;;;5054373;28;19914;-83
2022/12/13 08:22:57;;;;;;;;;;;;;;;;;;5056399;28;19917;-82
2022/12/13 08:25:25;;;;;;;;;;;;;;;;;;5053350;28;19924;-80
2022/12/13 08:27:53;;;;;;;;;;;;;;;;;;5036412;28;19913;-84
2022/12/13 08:30:19;;;;;;;;;;;;;;;;;;5038100;28;19956;-82
2022/12/13 08:32:44;;;;;;;;;;;;;;;;;;5037426;22;19929;-80
2022/12/13 08:35:10;;;;;;;;;;;;;;;;;;5034993;28;20331;-79
2022/12/13 08:37:43;;;;;;;;;;;;;;;;;;5034675;28;20439;-80
2022/12/13 08:40:09;;;;;;;;;;;;;;;;;;5035974;28;19915;-79
2022/12/13 08:42:38;;;;;;;;;;;;;;;;;;5048728;28;19924;-88
2022/12/13 08:45:16;;;;;;;;;;;;;;;;;;5045107;28;19932;-89
2022/12/13 08:47:52;;;;;;;;;;;;;;;;;;5061198;28;19901;-85
2022/12/13 08:50:21;;;;;;;;;;;;;;;;;;5027253;28;19909;-85
2022/12/13 08:53:07;;;;;;;;;;;;;;;;;;5058120;28;19909;-85
2022/12/13 08:55:33;;;;;;;;;;;;;;;;;;5041752;28;19897;-85
2022/12/13 08:58:02;;;;;;;;;;;;;;;;;;5044163;28;19905;-89
2022/12/13 09:00:41;;;;;;;;;;;;;;;;;;5029810;28;19913;-87
2022/12/13 09:16:38;;;;;;;;;;;;;;;;;;6070999;22;19927;-84
2022/12/13 09:27:10;;;;;;;;;;;;;;;;;;5797868;22;19909;-85
2022/12/13 09:35:01;;;;;;;;;;;;;;;;;;5158916;22;19925;-87
2022/12/13 09:37:31;;;;;;;;;;;;;;;;;;5042363;28;19901;-88
2022/12/13 09:39:56;;;;;;;;;;;;;;;;;;5042263;28;19917;-88
2022/12/13 09:42:23;;;;;;;;;;;;;;;;;;5026087;28;19976;-87
2022/12/13 09:44:52;;;;;;;;;;;;;;;;;;5025557;28;19917;-86
2022/12/13 09:47:33;;;;;;;;;;;;;;;;;;5057764;28;19913;-86
2022/12/13 09:50:01;;;;;;;;;;;;;;;;;;5041043;28;19994;-86
2022/12/13 09:52:30;;;;;;;;;;;;;;;;;;5057586;28;19897;-86
2022/12/13 09:54:58;;;;;;;;;;;;;;;;;;5024586;28;19913;-87
2022/12/13 10:10:59;;;;;;;;;;;;;;;;;;6085483;22;20352;-84
2022/12/13 10:18:50;;;;;;;;;;;;;;;;;;5532899;22;19909;-85
2022/12/13 10:21:18;;;;;;;;;;;;;;;;;;5042209;28;19943;-86
2022/12/13 10:23:49;;;;;;;;;;;;;;;;;;5460290;22;19992;-86
2022/12/13 10:26:25;;;;;;;;;;;;;;;;;;5659631;22;19936;-85
2022/12/13 10:28:54;;;;;;;;;;;;;;;;;;5383069;22;19908;-85
2022/12/13 10:50:18;;;;;;;;;;;;;;;;;;6126830;22;21055;-86
2022/12/13 11:14:26;;;;;;;;;;;;;;;;;;5605143;22;19909;-82
2022/12/13 11:19:52;;;;;;;;;;;;;;;;;;5273643;22;19925;-84
2022/12/13 11:33:10;;;;;;;;;;;;;;;;;;5726372;22;19936;-85
2022/12/13 11:38:33;;;;;;;;;;;;;;;;;;5553086;22;19924;-82
2022/12/13 11:46:37;;;;;;;;;;;;;;;;;;4998257;28;19913;-84
2022/12/13 11:49:11;;;;;;;;;;;;;;;;;;4984305;28;19927;-84
2022/12/13 11:51:37;;;;;;;;;;;;;;;;;;5164459;22;19967;-81
2022/12/13 11:54:08;;;;;;;;;;;;;;;;;;5036833;28;19918;-85
2022/12/13 11:56:34;;;;;;;;;;;;;;;;;;5055293;28;19963;-84
2022/12/13 11:59:02;;;;;;;;;;;;;;;;;;5005791;28;19965;-85
2022/12/13 12:01:30;;;;;;;;;;;;;;;;;;5048483;22;19913;-84
2022/12/13 12:03:56;;;;;;;;;;;;;;;;;;5025360;28;19902;-83
2022/12/13 12:06:22;;;;;;;;;;;;;;;;;;5245264;22;19948;-82
2022/12/13 12:08:47;;;;;;;;;;;;;;;;;;5062350;28;19901;-84
2022/12/13 12:11:22;;;;;;;;;;;;;;;;;;5062221;28;19925;-84
2022/12/13 12:13:47;;;;;;;;;;;;;;;;;;5062400;28;19987;-84
2022/12/13 12:16:16;;;;;;;;;;;;;;;;;;5045987;28;19901;-85
2022/12/13 12:18:41;;;;;;;;;;;;;;;;;;5062800;28;19901;-85
2022/12/13 12:21:10;;;;;;;;;;;;;;;;;;5062877;28;19908;-83
2022/12/13 12:23:36;;;;;;;;;;;;;;;;;;5061560;28;19901;-84
2022/12/13 12:26:02;;;;;;;;;;;;;;;;;;5061902;28;19920;-86
2022/12/13 12:28:27;;;;;;;;;;;;;;;;;;5045227;28;19901;-85
2022/12/13 12:30:56;;;;;;;;;;;;;;;;;;5233313;22;19940;-86
2022/12/13 12:33:27;;;;;;;;;;;;;;;;;;5025900;28;19901;-85
2022/12/13 12:35:55;;;;;;;;;;;;;;;;;;5042115;28;19901;-86
2022/12/13 12:41:03;;;;;;;;;;;;;;;;;;5246386;22;19913;-85
2022/12/13 12:43:36;;;;;;;;;;;;;;;;;;5022132;28;19984;-85
2022/12/13 12:46:02;;;;;;;;;;;;;;;;;;5022441;28;19902;-85
2022/12/13 12:48:28;;;;;;;;;;;;;;;;;;5256677;22;19935;-85
2022/12/13 12:50:54;;;;;;;;;;;;;;;;;;5061375;28;19932;-84
2022/12/13 12:53:23;;;;;;;;;;;;;;;;;;5029356;28;19901;-85
2022/12/13 12:55:51;;;;;;;;;;;;;;;;;;5061569;28;19924;-84
2022/12/13 12:58:16;;;;;;;;;;;;;;;;;;5061506;28;20127;-84
2022/12/13 13:00:45;;;;;;;;;;;;;;;;;;5155798;22;19932;-86
2022/12/13 13:03:11;;;;;;;;;;;;;;;;;;5061253;28;19924;-83
2022/12/13 13:05:38;;;;;;;;;;;;;;;;;;5044710;28;19905;-85
2022/12/13 13:08:07;;;;;;;;;;;;;;;;;;5060982;28;19929;-84
2022/12/13 13:10:33;;;;;;;;;;;;;;;;;;5060910;28;19932;-86
2022/12/13 13:13:02;;;;;;;;;;;;;;;;;;5044670;28;19901;-84
2022/12/13 13:15:28;;;;;;;;;;;;;;;;;;5060349;28;19960;-84
2022/12/13 13:17:57;;;;;;;;;;;;;;;;;;5043871;28;19940;-84
2022/12/13 13:20:25;;;;;;;;;;;;;;;;;;5432391;22;19938;-85
2022/12/13 13:23:07;;;;;;;;;;;;;;;;;;5078431;28;19909;-85
2022/12/13 13:25:34;;;;;;;;;;;;;;;;;;5484656;22;19923;-82
2022/12/13 13:28:00;;;;;;;;;;;;;;;;;;5191697;22;19936;-82
2022/12/13 13:30:26;;;;;;;;;;;;;;;;;;5408162;22;19909;-85
2022/12/13 13:32:54;;;;;;;;;;;;;;;;;;5083998;22;19909;-86
2022/12/13 13:35:31;;;;;;;;;;;;;;;;;;5651997;22;19924;-82
2022/12/13 13:40:38;;;;;;;;;;;;;;;;;;5183283;22;19917;-84
2022/12/13 13:48:37;;;;;;;;;;;;;;;;;;;;;
2022/12/13 13:54:04;;;;;;;;;;;;;;;;;;;;;
2022/12/13 13:56:36;;;;;;;;;;;;;;;;;;5596705;22;19909;-80
2022/12/13 14:01:54;;;;;;;;;;;;;;;;;;5641635;22;19917;-81
2022/12/13 14:07:09;;;;;;;;;;;;;;;;;;5756265;22;19913;-85
2022/12/13 14:09:37;;;;;;;;;;;;;;;;;;5337500;22;19978;-82
2022/12/13 14:12:04;;;;;;;;;;;;;;;;;;5512748;22;19924;-83
2022/12/13 14:14:30;;;;;;;;;;;;;;;;;;5467299;22;19924;-82
2022/12/13 14:16:58;;;;;;;;;;;;;;;;;;5500018;22;19937;-85
2022/12/13 14:19:25;;;;;;;;;;;;;;;;;;5637027;22;19924;-84
2022/12/13 14:22:05;;;;;;;;;;;;;;;;;;5392293;23;19909;-86
2022/12/13 14:30:07;;;;;;;;;;;;;;;;;;5221349;22;19935;-84
2022/12/13 14:46:44;;;;;;;;;;;;;;;;;;5723423;22;19909;-83
2022/12/13 15:13:22;;;;;;;;;;;;;;;;;;5585594;22;19925;-86
2022/12/13 15:18:23;;;;;;;;;;;;;;;;;;5309180;22;19932;-86
2022/12/13 15:20:54;;;;;;;;;;;;;;;;;;5058393;28;19908;-85
2022/12/13 15:23:24;;;;;;;;;;;;;;;;;;5059097;28;19913;-86
2022/12/13 16:13:18;;;;;;;;;;;;;;;;;;5888413;22;19916;-85
2022/12/13 16:18:29;;;;;;;;;;;;;;;;;;5021336;28;19925;-81
2022/12/13 16:20:55;;;;;;;;;;;;;;;;;;5025528;28;19960;-82
2022/12/13 16:23:26;;;;;;;;;;;;;;;;;;5006696;28;19918;-82
2022/12/13 16:26:04;;;;;;;;;;;;;;;;;;5011085;28;19920;-82
2022/12/13 16:28:29;;;;;;;;;;;;;;;;;;5029592;28;19921;-83
2022/12/13 16:30:55;;;;;;;;;;;;;;;;;;5028083;28;19918;-82
2022/12/13 16:33:20;;;;;;;;;;;;;;;;;;5024050;28;19933;-82
2022/12/13 16:35:46;;;;;;;;;;;;;;;;;;5009853;28;19914;-83
2022/12/13 16:38:17;;;;;;;;;;;;;;;;;;5233014;22;19940;-82
2022/12/13 16:40:43;;;;;;;;;;;;;;;;;;5037318;28;19908;-84
2022/12/13 16:43:08;;;;;;;;;;;;;;;;;;5039969;28;19897;-83
2022/12/13 16:45:34;;;;;;;;;;;;;;;;;;5070910;28;19981;-82
2022/12/13 16:48:00;;;;;;;;;;;;;;;;;;5055630;28;19893;-83
2022/12/13 16:50:26;;;;;;;;;;;;;;;;;;5037975;28;19923;-82
2022/12/13 16:52:52;;;;;;;;;;;;;;;;;;5034769;28;19945;-82
2022/12/13 16:55:17;;;;;;;;;;;;;;;;;;5048944;28;20430;-82
2022/12/13 16:57:43;;;;;;;;;;;;;;;;;;5050321;28;19920;-82
2022/12/13 17:00:09;;;;;;;;;;;;;;;;;;5018694;28;19914;-82
2022/12/13 17:02:34;;;;;;;;;;;;;;;;;;5008180;28;19968;-81
2022/12/13 17:05:00;;;;;;;;;;;;;;;;;;5007141;28;19913;-83
2022/12/13 17:07:25;;;;;;;;;;;;;;;;;;5025849;28;20365;-83
2022/12/13 17:09:51;;;;;;;;;;;;;;;;;;5008883;28;19958;-82
2022/12/13 17:12:16;;;;;;;;;;;;;;;;;;5021576;28;19981;-82
2022/12/13 17:14:42;;;;;;;;;;;;;;;;;;5005891;28;19914;-82
2022/12/13 17:17:07;;;;;;;;;;;;;;;;;;5044516;28;19921;-83
2022/12/13 17:19:32;;;;;;;;;;;;;;;;;;5012500;28;19921;-81
2022/12/13 17:21:58;;;;;;;;;;;;;;;;;;4994145;28;20377;-83
2022/12/13 17:24:23;;;;;;;;;;;;;;;;;;5021122;28;20274;-81
2022/12/13 17:26:49;;;;;;;;;;;;;;;;;;5006356;28;19990;-83
2022/12/13 17:29:15;;;;;;;;;;;;;;;;;;5028546;28;19981;-82
2022/12/13 17:31:41;;;;;;;;;;;;;;;;;;5028133;28;20390;-82
2022/12/13 17:34:07;;;;;;;;;;;;;;;;;;5012135;28;19965;-82
2022/12/13 17:36:33;;;;;;;;;;;;;;;;;;5009325;28;20297;-81
2022/12/13 17:38:58;;;;;;;;;;;;;;;;;;5005913;28;19973;-82
2022/12/13 17:41:24;;;;;;;;;;;;;;;;;;5019937;28;20114;-82
2022/12/13 17:43:50;;;;;;;;;;;;;;;;;;4987209;28;19925;-82
2022/12/13 17:46:15;;;;;;;;;;;;;;;;;;4999630;28;20332;-81
2022/12/13 17:48:41;;;;;;;;;;;;;;;;;;5000071;28;19914;-81
2022/12/13 17:51:07;;;;;;;;;;;;;;;;;;5014921;28;20270;-81
2022/12/13 17:53:32;;;;;;;;;;;;;;;;;;4989419;28;19913;-81
2022/12/13 17:55:58;;;;;;;;;;;;;;;;;;5019431;28;20211;-81
2022/12/13 17:58:24;;;;;;;;;;;;;;;;;;5029635;28;19981;-81
2022/12/13 18:00:49;;;;;;;;;;;;;;;;;;5030512;28;19914;-81
2022/12/13 18:03:15;;;;;;;;;;;;;;;;;;5047300;28;20005;-81
2022/12/13 18:05:40;;;;;;;;;;;;;;;;;;5042298;28;19920;-82
2022/12/13 18:08:06;;;;;;;;;;;;;;;;;;5019832;28;20361;-80
2022/12/13 18:10:31;;;;;;;;;;;;;;;;;;5020020;28;20008;-82
2022/12/13 18:12:57;;;;;;;;;;;;;;;;;;5015909;28;19913;-83
2022/12/13 18:15:22;;;;;;;;;;;;;;;;;;5037947;28;19964;-81
2022/12/13 18:17:48;;;;;;;;;;;;;;;;;;5038470;28;19917;-82
2022/12/13 18:20:13;;;;;;;;;;;;;;;;;;5023050;28;19921;-81
2022/12/13 18:22:39;;;;;;;;;;;;;;;;;;5021359;28;19920;-82
2022/12/13 18:25:04;;;;;;;;;;;;;;;;;;5022961;28;20349;-82
2022/12/13 18:27:31;;;;;;;;;;;;;;;;;;5022848;28;20409;-82
2022/12/13 18:29:57;;;;;;;;;;;;;;;;;;5021680;28;19937;-82
2022/12/13 18:32:23;;;;;;;;;;;;;;;;;;5022805;28;19940;-82
2022/12/13 18:34:48;;;;;;;;;;;;;;;;;;5024694;28;19917;-82
2022/12/13 18:37:14;;;;;;;;;;;;;;;;;;5007477;28;19914;-82
2022/12/13 18:39:40;;;;;;;;;;;;;;;;;;5023942;28;19924;-82
2022/12/13 18:42:06;;;;;;;;;;;;;;;;;;5025600;28;19984;-82
2022/12/13 18:44:31;;;;;;;;;;;;;;;;;;5009980;28;19968;-82
2022/12/13 18:46:57;;;;;;;;;;;;;;;;;;5027658;28;19967;-83
2022/12/13 18:49:22;;;;;;;;;;;;;;;;;;5041540;28;19914;-82
2022/12/13 18:51:48;;;;;;;;;;;;;;;;;;5025396;28;19921;-82
2022/12/13 18:54:13;;;;;;;;;;;;;;;;;;5022063;28;20353;-82
2022/12/13 18:56:38;;;;;;;;;;;;;;;;;;5024663;28;19914;-82
2022/12/13 18:59:04;;;;;;;;;;;;;;;;;;5040438;28;19977;-82
2022/12/13 19:01:30;;;;;;;;;;;;;;;;;;5024814;28;19914;-83
2022/12/13 19:03:55;;;;;;;;;;;;;;;;;;5036299;28;19969;-82
2022/12/13 19:06:21;;;;;;;;;;;;;;;;;;5039762;28;19972;-83
2022/12/13 19:08:47;;;;;;;;;;;;;;;;;;5039687;28;19960;-83
2022/12/13 19:11:15;;;;;;;;;;;;;;;;;;5038703;28;20016;-82
2022/12/13 19:13:41;;;;;;;;;;;;;;;;;;5037056;28;19914;-82
2022/12/13 19:16:07;;;;;;;;;;;;;;;;;;5037716;28;19982;-82
2022/12/13 19:18:32;;;;;;;;;;;;;;;;;;5020944;28;19914;-83
2022/12/13 19:20:57;;;;;;;;;;;;;;;;;;5017221;28;20254;-82
2022/12/13 19:23:23;;;;;;;;;;;;;;;;;;5039100;28;20403;-81
2022/12/13 19:25:49;;;;;;;;;;;;;;;;;;5039983;28;19913;-83
2022/12/13 19:28:16;;;;;;;;;;;;;;;;;;5023478;28;19921;-82
2022/12/13 19:30:42;;;;;;;;;;;;;;;;;;5039824;28;19956;-83
2022/12/13 19:33:09;;;;;;;;;;;;;;;;;;5022041;28;21319;-84
2022/12/13 19:35:35;;;;;;;;;;;;;;;;;;5020547;28;19920;-84
2022/12/13 19:38:02;;;;;;;;;;;;;;;;;;5036802;28;19920;-85
2022/12/13 19:40:28;;;;;;;;;;;;;;;;;;5033641;28;19929;-83
2022/12/13 19:42:53;;;;;;;;;;;;;;;;;;5034209;28;19897;-84
2022/12/13 19:45:19;;;;;;;;;;;;;;;;;;5055018;28;19945;-84
2022/12/13 19:47:47;;;;;;;;;;;;;;;;;;5056180;28;19913;-84
2022/12/13 19:50:13;;;;;;;;;;;;;;;;;;5061209;28;19921;-84
2022/12/13 19:52:38;;;;;;;;;;;;;;;;;;5035438;28;19920;-83
2022/12/13 19:55:04;;;;;;;;;;;;;;;;;;5036711;28;19921;-84
2022/12/13 19:57:30;;;;;;;;;;;;;;;;;;5051346;28;19976;-85
2022/12/13 19:59:59;;;;;;;;;;;;;;;;;;5035968;28;19901;-84
2022/12/13 20:02:25;;;;;;;;;;;;;;;;;;5036474;28;19922;-85
2022/12/13 20:04:51;;;;;;;;;;;;;;;;;;5036705;28;19921;-83
2022/12/13 20:07:16;;;;;;;;;;;;;;;;;;5053071;28;19917;-84
2022/12/13 20:09:42;;;;;;;;;;;;;;;;;;5035869;28;19917;-84
2022/12/13 20:12:08;;;;;;;;;;;;;;;;;;5035780;28;19913;-84
2022/12/13 20:14:33;;;;;;;;;;;;;;;;;;5035491;28;19940;-85
2022/12/13 20:16:59;;;;;;;;;;;;;;;;;;5035880;28;19906;-84
2022/12/13 20:19:25;;;;;;;;;;;;;;;;;;5038923;28;19924;-84
2022/12/13 20:21:51;;;;;;;;;;;;;;;;;;5055975;28;19981;-83
2022/12/13 20:24:17;;;;;;;;;;;;;;;;;;5073639;28;19913;-83
2022/12/13 20:26:43;;;;;;;;;;;;;;;;;;5029898;28;19914;-83
2022/12/13 20:29:08;;;;;;;;;;;;;;;;;;5050083;28;19913;-84